Time;durP1;ratioP1;P1;durP2;ratioP2;P2;SDS_P1;SDS_P2;PMS_P1;PMS_P2;Temp;Humidity;BMP_temperature;BMP_pressure;BME280_temperature;BME280_humidity;BME280_pressure;Samples;Min_cycle;Max_cycle;Signal;HPM_P1;HPM_P2
2022/06/06 00:01:31;;;;;;;4.43;1.38;;;24.70;51.40;;;;;;6270174;28;20021;-70
2022/06/06 00:04:33;;;;;;;2.45;1.42;;;24.60;51.30;;;;;;6249700;28;20354;-71
2022/06/06 00:07:35;;;;;;;4.05;1.48;;;24.60;51.40;;;;;;6245869;28;20116;-71
2022/06/06 00:10:35;;;;;;;2.83;1.33;;;24.50;51.40;;;;;;6249419;28;20562;-71
2022/06/06 00:13:39;;;;;;;5.25;1.20;;;24.50;51.50;;;;;;6247940;28;20033;-71
2022/06/06 00:16:40;;;;;;;4.93;1.33;;;24.50;51.60;;;;;;6248149;28;20013;-71
2022/06/06 00:19:41;;;;;;;3.55;1.42;;;24.40;51.60;;;;;;6247131;28;20048;-71
2022/06/06 00:22:43;;;;;;;1.70;1.30;;;24.40;51.70;;;;;;6270887;28;20060;-71
2022/06/06 00:25:43;;;;;;;2.42;1.27;;;24.30;51.80;;;;;;6273332;28;20069;-71
2022/06/06 00:28:44;;;;;;;1.60;1.08;;;24.30;51.90;;;;;;6273628;28;20041;-71
2022/06/06 00:35:06;;;;;;;2.30;1.33;;;24.20;52.30;;;;;;6265937;28;20067;-71
2022/06/06 00:38:07;;;;;;;3.10;1.10;;;24.10;52.40;;;;;;6244316;28;20645;-71
2022/06/06 00:41:08;;;;;;;1.40;1.20;;;24.10;52.50;;;;;;6260098;28;20087;-71
2022/06/06 00:44:13;;;;;;;1.50;1.00;;;24.10;52.60;;;;;;6273133;28;20362;-71
2022/06/06 00:47:31;;;;;;;2.15;1.20;;;24.10;52.60;;;;;;6255501;28;20472;-71
2022/06/06 00:50:35;;;;;;;;;;;24.00;52.60;;;;;;6251570;28;20061;-71
2022/06/06 00:53:57;;;;;;;9.00;1.40;;;24.00;52.70;;;;;;6245425;28;19979;-71
2022/06/06 00:57:05;;;;;;;5.97;1.27;;;24.00;53.30;;;;;;6270729;28;20039;-71
2022/06/06 01:00:11;;;;;;;1.23;1.08;;;24.00;52.80;;;;;;6270031;28;20044;-71
2022/06/06 01:03:16;;;;;;;9.18;1.35;;;24.00;53.00;;;;;;6245882;28;20382;-71
2022/06/06 01:06:19;;;;;;;2.38;1.42;;;23.90;53.00;;;;;;6246597;28;20101;-71
2022/06/06 01:09:23;;;;;;;3.22;1.70;;;23.90;53.10;;;;;;6271751;28;20043;-71
2022/06/06 01:12:24;;;;;;;5.05;1.90;;;23.90;53.10;;;;;;6242561;28;20041;-71
2022/06/06 01:15:30;;;;;;;8.75;1.50;;;23.90;53.30;;;;;;6245114;28;20144;-72
2022/06/06 01:18:41;;;;;;;6.85;1.30;;;23.90;53.30;;;;;;6276251;28;20068;-71
2022/06/06 01:22:03;;;;;;;4.10;1.38;;;23.80;53.30;;;;;;6249197;28;20064;-72
2022/06/06 01:25:32;;;;;;;3.63;1.38;;;23.80;53.40;;;;;;6271363;28;20057;-72
2022/06/06 01:28:56;;;;;;;4.93;1.35;;;23.80;53.40;;;;;;6243399;28;20029;-71
2022/06/06 01:32:02;;;;;;;5.50;1.65;;;23.80;53.50;;;;;;6243676;28;20037;-71
2022/06/06 01:35:03;;;;;;;2.63;1.45;;;23.80;53.60;;;;;;6247493;28;20021;-72
2022/06/06 01:38:05;;;;;;;2.80;1.33;;;23.80;53.60;;;;;;6244768;28;20025;-71
2022/06/06 01:41:15;;;;;;;6.03;1.30;;;23.70;53.80;;;;;;6261194;28;20041;-72
2022/06/06 01:44:27;;;;;;;2.55;1.20;;;23.70;53.90;;;;;;6245984;28;20678;-71
2022/06/06 01:47:43;;;;;;;4.68;1.38;;;23.60;53.90;;;;;;6240187;28;20026;-71
2022/06/06 01:50:44;;;;;;;5.28;1.70;;;23.60;54.10;;;;;;6275633;28;20423;-71
2022/06/06 01:53:46;;;;;;;3.67;1.20;;;23.60;54.20;;;;;;6273328;28;20086;-71
2022/06/06 01:56:47;;;;;;;3.65;1.40;;;23.50;54.40;;;;;;6243262;28;20030;-72
2022/06/06 01:59:48;;;;;;;5.95;1.42;;;23.50;54.40;;;;;;6246018;28;20049;-71
2022/06/06 02:02:49;;;;;;;2.35;1.40;;;23.50;54.50;;;;;;6245975;28;20021;-72
2022/06/06 02:05:50;;;;;;;3.35;1.50;;;23.40;54.40;;;;;;6244422;28;20036;-71
2022/06/06 02:08:51;;;;;;;2.10;1.25;;;23.40;54.50;;;;;;6270044;28;20112;-71
2022/06/06 02:11:53;;;;;;;4.72;1.65;;;23.40;54.60;;;;;;6246050;28;20497;-71
2022/06/06 02:14:54;;;;;;;2.53;1.23;;;23.40;55.20;;;;;;6244740;28;22319;-71
2022/06/06 02:17:55;;;;;;;2.28;1.50;;;23.40;54.60;;;;;;6270570;28;20022;-71
2022/06/06 02:20:56;;;;;;;3.10;1.60;;;23.40;54.70;;;;;;6244532;28;20030;-71
2022/06/06 02:23:57;;;;;;;2.00;1.35;;;23.40;54.70;;;;;;6242524;28;20036;-71
2022/06/06 02:26:58;;;;;;;2.80;1.15;;;23.30;54.80;;;;;;6242039;28;20462;-71
2022/06/06 02:30:00;;;;;;;3.20;1.45;;;23.30;55.00;;;;;;6246275;28;20060;-71
2022/06/06 02:33:02;;;;;;;2.97;1.63;;;23.20;55.10;;;;;;6244423;28;20038;-71
2022/06/06 02:36:03;;;;;;;6.00;1.38;;;23.20;55.20;;;;;;6257016;28;20044;-71
2022/06/06 02:39:05;;;;;;;2.25;1.35;;;23.10;55.30;;;;;;6270898;28;20057;-72
2022/06/06 02:42:06;;;;;;;2.72;1.30;;;23.10;55.40;;;;;;6275070;28;20044;-72
2022/06/06 02:45:12;;;;;;;4.10;1.70;;;23.00;55.50;;;;;;6244022;28;20096;-71
2022/06/06 02:48:13;;;;;;;2.35;1.20;;;23.00;55.60;;;;;;6240506;28;20033;-71
2022/06/06 02:51:14;;;;;;;3.05;1.50;;;22.90;55.50;;;;;;6270492;28;20029;-71
2022/06/06 02:54:16;;;;;;;2.97;1.65;;;22.90;55.60;;;;;;6242369;28;20032;-71
2022/06/06 02:57:16;;;;;;;1.92;1.40;;;22.90;55.70;;;;;;6244736;28;20414;-71
2022/06/06 03:00:27;;;;;;;1.98;1.40;;;22.90;55.70;;;;;;6270670;28;20446;-72
2022/06/06 03:03:28;;;;;;;1.80;1.60;;;22.90;55.70;;;;;;6242510;28;20112;-72
2022/06/06 03:07:04;;;;;;;1.60;1.23;;;22.90;55.70;;;;;;6240455;28;20347;-72
2022/06/06 03:10:42;;;;;;;5.32;1.80;;;22.80;55.70;;;;;;6202293;28;20100;-72
2022/06/06 03:14:01;;;;;;;5.15;1.48;;;22.80;55.80;;;;;;6217209;28;20100;-72
2022/06/06 03:21:14;;;;;;;5.50;3.97;;;22.80;56.20;;;;;;6215883;28;20034;-72
2022/06/06 03:24:41;;;;;;;7.88;3.47;;;22.70;56.50;;;;;;6219768;28;20051;-72
2022/06/06 03:28:01;;;;;;;3.33;1.92;;;22.60;56.70;;;;;;6203283;28;20022;-70
2022/06/06 03:31:13;;;;;;;4.95;2.72;;;22.60;57.00;;;;;;6210774;28;20077;-71
2022/06/06 03:34:51;;;;;;;4.53;2.88;;;22.50;57.00;;;;;;6204383;28;20149;-71
2022/06/06 03:37:58;;;;;;;11.65;4.97;;;22.50;57.20;;;;;;6128831;29;20044;-72
2022/06/06 03:41:05;;;;;;;7.85;4.78;;;22.50;57.20;;;;;;6128367;29;20369;-71
2022/06/06 03:44:13;;;;;;;4.05;3.10;;;22.50;57.20;;;;;;6139567;28;20473;-72
2022/06/06 03:47:34;;;;;;;6.13;2.90;;;22.40;57.20;;;;;;6172680;28;20027;-72
2022/06/06 03:50:58;;;;;;;3.83;1.88;;;22.40;57.50;;;;;;6174399;28;20456;-72
2022/06/06 03:54:23;;;;;;;6.85;2.05;;;22.40;57.50;;;;;;6170881;28;20062;-71
2022/06/06 03:57:26;;;;;;;10.50;4.03;;;22.40;57.60;;;;;;6173465;28;20038;-70
2022/06/06 04:00:27;;;;;;;6.30;1.85;;;22.30;57.50;;;;;;6175669;28;20050;-71
2022/06/06 04:03:31;;;;;;;5.07;1.48;;;22.30;57.50;;;;;;6177999;28;20041;-71
2022/06/06 04:06:34;;;;;;;7.43;1.90;;;22.40;57.50;;;;;;6143152;28;20042;-71
2022/06/06 04:09:37;;;;;;;5.68;1.70;;;22.40;57.40;;;;;;6157745;28;20041;-73
2022/06/06 04:12:53;;;;;;;2.67;1.30;;;22.40;57.30;;;;;;6145086;28;20074;-71
2022/06/06 04:16:03;;;;;;;4.53;1.40;;;22.40;57.30;;;;;;6247247;28;20164;-70
2022/06/06 04:19:22;;;;;;;2.95;1.13;;;22.40;57.20;;;;;;6273537;28;20078;-72
2022/06/06 04:22:34;;;;;;;2.75;1.58;;;22.40;57.20;;;;;;6272116;28;20032;-72
2022/06/06 04:25:44;;;;;;;4.50;1.52;;;22.40;57.20;;;;;;6247044;28;20021;-72
2022/06/06 04:29:17;;;;;;;3.28;1.77;;;22.40;57.20;;;;;;6277824;28;20032;-72
2022/06/06 04:32:30;;;;;;;2.17;1.55;;;22.40;57.10;;;;;;6262246;28;20076;-72
2022/06/06 04:35:46;;;;;;;3.03;1.60;;;22.50;57.10;;;;;;6271299;28;20385;-71
2022/06/06 04:38:58;;;;;;;22.73;1.40;;;22.50;57.00;;;;;;6273413;28;20343;-71
2022/06/06 04:42:20;;;;;;;4.53;1.48;;;22.50;57.00;;;;;;6271356;28;20416;-71
2022/06/06 04:45:37;;;;;;;3.25;1.85;;;22.50;57.00;;;;;;6254342;28;20033;-71
2022/06/06 04:48:40;;;;;;;2.40;1.40;;;22.50;57.10;;;;;;6253042;28;20040;-71
2022/06/06 04:51:43;;;;;;;5.30;1.20;;;22.40;57.00;;;;;;6272707;28;20117;-72
2022/06/06 04:54:45;;;;;;;4.10;1.45;;;22.50;57.20;;;;;;6272054;28;20039;-71
2022/06/06 04:57:49;;;;;;;7.63;1.80;;;22.50;57.20;;;;;;6272958;28;20490;-72
2022/06/06 05:00:51;;;;;;;2.65;2.00;;;22.50;57.20;;;;;;6270688;28;20084;-72
2022/06/06 05:03:53;;;;;;;3.05;2.20;;;22.50;57.50;;;;;;6269831;28;20211;-72
2022/06/06 05:06:59;;;;;;;2.17;1.70;;;22.50;57.50;;;;;;6271183;28;20041;-72
2022/06/06 05:10:16;;;;;;;2.38;1.60;;;22.40;57.50;;;;;;6247288;28;20021;-72
2022/06/06 05:13:36;;;;;;;2.83;1.67;;;22.40;57.50;;;;;;6262023;28;20034;-72
2022/06/06 05:17:13;;;;;;;5.95;2.00;;;22.40;57.50;;;;;;6247480;28;20458;-72
2022/06/06 05:20:33;;;;;;;3.13;1.73;;;22.40;58.20;;;;;;6281108;28;20618;-72
2022/06/06 05:23:55;;;;;;;6.80;2.20;;;22.30;57.60;;;;;;6256348;28;20367;-72
2022/06/06 05:27:30;;;;;;;4.55;1.63;;;22.30;57.80;;;;;;6240852;28;20109;-71
2022/06/06 05:30:56;;;;;;;7.93;1.90;;;22.30;57.80;;;;;;6246191;28;20044;-72
2022/06/06 05:34:01;;;;;;;3.80;1.65;;;22.30;57.80;;;;;;6243994;28;20366;-72
2022/06/06 05:37:31;;;;;;;8.80;2.30;;;22.30;57.70;;;;;;6245056;28;20025;-72
2022/06/06 05:40:56;;;;;;;3.90;2.20;;;22.30;57.80;;;;;;6245851;28;20037;-71
2022/06/06 05:44:14;;;;;;;5.63;1.92;;;22.20;57.90;;;;;;6243495;28;20045;-71
2022/06/06 05:47:52;;;;;;;6.13;2.25;;;22.20;57.90;;;;;;6244264;28;20121;-71
2022/06/06 05:50:58;;;;;;;3.03;1.50;;;22.30;58.00;;;;;;6270394;28;20239;-71
2022/06/06 05:54:00;;;;;;;3.60;1.80;;;22.30;57.90;;;;;;6240335;28;20120;-71
2022/06/06 05:57:06;;;;;;;3.75;2.22;;;22.40;57.90;;;;;;6276418;28;20071;-71
2022/06/06 06:00:19;;;;;;;6.28;2.00;;;22.50;57.80;;;;;;6268569;28;20037;-72
2022/06/06 06:03:41;;;;;;;5.45;2.15;;;22.60;57.60;;;;;;6247051;28;20032;-72
2022/06/06 06:07:00;;;;;;;3.95;2.00;;;22.80;57.40;;;;;;6251024;28;20336;-71
2022/06/06 06:10:07;;;;;;;4.28;2.50;;;22.90;57.10;;;;;;6244322;28;20037;-72
2022/06/06 06:13:40;;;;;;;5.82;2.13;;;23.10;56.80;;;;;;6244710;28;20064;-71
2022/06/06 06:16:49;;;;;;;4.78;1.77;;;23.20;56.50;;;;;;6242204;28;20102;-71
2022/06/06 06:19:59;;;;;;;10.73;2.40;;;23.40;56.30;;;;;;6254278;28;20040;-71
2022/06/06 06:23:11;;;;;;;3.53;2.38;;;23.50;56.00;;;;;;6244719;28;20033;-71
2022/06/06 06:26:13;;;;;;;4.25;2.33;;;23.70;55.70;;;;;;6243857;28;20034;-71
2022/06/06 06:29:14;;;;;;;3.42;1.83;;;23.80;55.40;;;;;;6244099;28;20360;-71
2022/06/06 06:32:49;;;;;;;9.38;2.08;;;23.90;55.20;;;;;;6243449;28;20052;-71
2022/06/06 06:35:59;;;;;;;3.60;1.85;;;24.00;55.10;;;;;;6271332;28;20056;-72
2022/06/06 06:39:09;;;;;;;4.15;1.80;;;24.10;54.70;;;;;;6276062;28;20029;-72
2022/06/06 06:42:35;;;;;;;4.25;2.22;;;24.20;54.40;;;;;;6243404;28;20022;-72
2022/06/06 06:45:57;;;;;;;2.40;2.00;;;24.30;54.10;;;;;;6271093;28;20049;-72
2022/06/06 06:49:25;;;;;;;5.22;2.50;;;24.40;53.80;;;;;;6266815;28;20022;-72
2022/06/06 06:52:47;;;;;;;7.43;2.13;;;24.50;54.10;;;;;;6273695;28;20451;-72
2022/06/06 06:56:16;;;;;;;3.60;1.92;;;24.60;53.20;;;;;;6268099;28;20104;-72
2022/06/06 06:59:36;;;;;;;3.83;1.80;;;24.70;52.90;;;;;;6264216;28;20025;-70
2022/06/06 07:10:11;;;;;;;4.30;1.98;;;25.00;51.90;;;;;;6249308;28;20025;-72
2022/06/06 07:13:30;;;;;;;2.60;1.90;;;25.10;51.60;;;;;;6246404;28;20034;-71
2022/06/06 07:16:37;;;;;;;3.67;2.13;;;25.30;51.50;;;;;;6266182;28;20036;-71
2022/06/06 07:19:45;;;;;;;3.55;2.22;;;25.40;51.10;;;;;;6250013;28;20075;-71
2022/06/06 07:23:04;;;;;;;3.35;2.17;;;25.50;51.00;;;;;;6264293;28;20040;-71
2022/06/06 07:26:10;;;;;;;10.98;2.50;;;25.60;50.70;;;;;;6249194;28;20057;-70
2022/06/06 07:29:14;;;;;;;5.55;2.10;;;25.70;50.50;;;;;;6247694;28;20033;-71
2022/06/06 07:32:27;;;;;;;6.40;1.88;;;25.80;50.30;;;;;;6247078;28;20399;-71
2022/06/06 07:35:40;;;;;;;11.13;2.30;;;25.90;50.20;;;;;;6246457;28;20029;-71
2022/06/06 07:39:01;;;;;;;5.35;2.03;;;26.00;49.90;;;;;;6265556;28;20025;-72
2022/06/06 07:42:18;;;;;;;4.25;1.85;;;26.10;49.90;;;;;;6248683;28;20029;-71
2022/06/06 07:45:38;;;;;;;4.70;1.90;;;26.20;49.80;;;;;;6249027;28;20032;-71
2022/06/06 07:49:05;;;;;;;3.88;2.03;;;26.30;49.60;;;;;;6242921;28;20442;-72
2022/06/06 07:52:20;;;;;;;5.20;1.52;;;26.30;49.50;;;;;;6243885;28;20460;-72
2022/06/06 07:55:31;;;;;;;5.05;1.67;;;26.20;49.60;;;;;;6247210;28;20030;-73
2022/06/06 07:58:56;;;;;;;3.67;1.75;;;26.20;49.60;;;;;;6247133;28;20052;-73
2022/06/06 08:02:03;;;;;;;2.20;1.70;;;26.10;49.70;;;;;;6246462;28;20025;-72
2022/06/06 08:05:25;;;;;;;3.55;1.85;;;26.10;49.80;;;;;;6246762;28;20033;-72
2022/06/06 08:09:00;;;;;;;5.15;1.70;;;26.10;49.80;;;;;;6248590;28;20222;-72
2022/06/06 08:12:24;;;;;;;3.90;1.75;;;26.10;49.50;;;;;;6271618;28;20029;-72
2022/06/06 08:15:49;;;;;;;3.03;1.83;;;26.10;49.50;;;;;;6255480;28;20163;-72
2022/06/06 08:19:05;;;;;;;4.18;2.17;;;26.10;49.60;;;;;;6247575;28;20037;-71
2022/06/06 08:22:08;;;;;;;7.90;2.13;;;26.20;49.50;;;;;;6245624;28;20032;-74
2022/06/06 08:25:12;;;;;;;18.23;2.15;;;26.40;49.20;;;;;;6244313;28;20510;-72
2022/06/06 08:28:15;;;;;;;2.75;1.67;;;26.60;49.00;;;;;;6245432;28;20029;-71
2022/06/06 08:31:18;;;;;;;4.40;1.60;;;26.70;48.70;;;;;;6254698;28;20037;-71
2022/06/06 08:34:21;;;;;;;5.50;1.88;;;26.90;48.50;;;;;;6249976;28;20379;-72
2022/06/06 08:37:31;;;;;;;2.30;2.00;;;27.00;48.20;;;;;;6270307;28;20096;-73
2022/06/06 08:40:59;;;;;;;4.07;1.88;;;27.00;47.80;;;;;;6278425;28;20029;-72
2022/06/06 08:44:19;;;;;;;3.28;1.88;;;27.00;47.60;;;;;;6262655;28;20025;-72
2022/06/06 08:47:43;;;;;;;4.07;1.70;;;27.10;47.60;;;;;;6232796;28;20461;-72
2022/06/06 08:51:00;;;;;;;1.67;1.20;;;27.10;47.40;;;;;;6248185;28;20036;-72
2022/06/06 08:54:20;;;;;;;2.80;1.58;;;27.20;47.30;;;;;;6274913;28;20021;-72
2022/06/06 08:57:55;;;;;;;4.88;1.58;;;27.40;47.10;;;;;;6259184;28;20505;-72
2022/06/06 09:01:17;;;;;;;2.45;1.77;;;27.50;46.80;;;;;;6245244;28;20100;-72
2022/06/06 09:04:37;;;;;;;3.67;1.73;;;27.60;46.60;;;;;;6245540;28;20041;-72
2022/06/06 09:07:56;;;;;;;5.00;1.88;;;27.70;46.40;;;;;;6242760;28;20160;-71
2022/06/06 09:11:25;;;;;;;3.10;1.90;;;27.70;46.20;;;;;;6272877;28;20029;-71
2022/06/06 09:14:45;;;;;;;3.30;1.60;;;27.80;46.10;;;;;;6262667;28;20053;-72
2022/06/06 09:17:56;;;;;;;7.97;1.88;;;28.00;45.90;;;;;;6271182;28;20104;-72
2022/06/06 09:21:17;;;;;;;3.90;1.60;;;28.00;45.60;;;;;;6248286;28;20040;-72
2022/06/06 09:24:28;;;;;;;2.72;2.00;;;28.10;45.40;;;;;;6270388;28;20040;-71
2022/06/06 09:27:58;;;;;;;2.78;1.80;;;28.20;45.20;;;;;;6240438;28;20034;-72
2022/06/06 09:31:21;;;;;;;2.42;1.63;;;28.30;45.00;;;;;;6244784;28;20060;-73
2022/06/06 09:34:46;;;;;;;5.50;1.92;;;28.50;44.70;;;;;;6266526;28;20033;-72
2022/06/06 09:37:59;;;;;;;3.80;1.80;;;28.50;44.00;;;;;;6244293;28;20025;-72
2022/06/06 09:41:15;;;;;;;4.85;1.40;;;28.40;44.10;;;;;;6245748;28;20045;-74
2022/06/06 09:44:34;;;;;;;1.48;1.33;;;28.50;43.50;;;;;;6252949;28;20094;-72
2022/06/06 09:48:13;;;;;;;2.75;1.70;;;28.50;42.90;;;;;;6248598;28;20057;-72
2022/06/06 09:51:39;;;;;;;5.78;2.33;;;28.50;42.60;;;;;;6271173;28;20064;-72
2022/06/06 09:59:05;;;;;;;1.88;1.50;;;28.50;42.70;;;;;;6269714;28;20112;-70
2022/06/06 10:02:34;;;;;;;3.28;1.67;;;28.60;42.70;;;;;;6204493;28;20483;-73
2022/06/06 10:05:35;;;;;;;4.65;1.50;;;28.70;42.50;;;;;;6221267;28;20037;-72
2022/06/06 10:09:20;;;;;;;4.85;1.45;;;28.80;42.20;;;;;;6231254;28;20033;-72
2022/06/06 10:12:48;;;;;;;5.10;1.50;;;28.70;41.90;;;;;;6227436;28;20376;-72
2022/06/06 10:16:20;;;;;;;3.85;1.50;;;28.80;41.40;;;;;;6228750;28;20080;-72
2022/06/06 10:19:45;;;;;;;6.97;2.65;;;28.90;40.70;;;;;;6203825;28;20170;-72
2022/06/06 10:23:44;;;;;;;2.67;1.48;;;28.90;40.10;;;;;;6227809;28;20037;-72
2022/06/06 10:27:22;;;;;;;8.57;1.48;;;29.00;39.30;;;;;;6007530;29;20163;-73
2022/06/06 10:30:53;;;;;;;2.47;1.65;;;29.10;38.60;;;;;;6007519;29;20117;-71
2022/06/06 10:33:59;;;;;;;3.97;1.80;;;29.10;38.00;;;;;;6008555;29;20053;-71
2022/06/06 10:37:48;;;;;;;2.38;1.20;;;29.20;38.10;;;;;;6029154;29;20036;-72
2022/06/06 10:41:06;;;;;;;8.48;2.10;;;29.30;37.70;;;;;;6019832;29;20097;-73
2022/06/06 10:44:17;;;;;;;;;;;29.40;37.70;;;;;;6015736;29;20113;-71
2022/06/06 10:47:36;;;;;;;2.72;1.23;;;29.50;37.50;;;;;;6018440;29;20333;-71
2022/06/06 10:54:42;;;;;;;2.97;1.30;;;29.60;37.30;;;;;;6020678;29;20574;-72
2022/06/06 10:58:00;;;;;;;;;;;29.70;36.70;;;;;;6017530;29;20155;-72
2022/06/06 11:01:32;;;;;;;1.80;1.25;;;29.80;36.60;;;;;;6031858;29;19918;-73
2022/06/06 11:05:01;;;;;;;1.83;1.10;;;30.00;36.50;;;;;;6193250;28;20043;-72
2022/06/06 11:08:15;;;;;;;2.83;1.38;;;31.30;34.70;;;;;;6188142;28;20487;-73
2022/06/06 11:11:25;;;;;;;3.08;1.33;;;32.50;33.20;;;;;;6173826;28;20140;-72
2022/06/06 11:14:42;;;;;;;1.40;1.30;;;33.70;31.70;;;;;;6189659;28;20033;-73
2022/06/06 11:18:29;;;;;;;2.42;1.30;;;34.50;30.50;;;;;;6224989;28;20456;-74
2022/06/06 11:22:01;;;;;;;4.60;1.85;;;35.40;29.60;;;;;;6228158;28;20039;-72
2022/06/06 11:25:02;;;;;;;3.15;1.55;;;36.20;29.00;;;;;;6239716;28;20167;-73
2022/06/06 11:28:12;;;;;;;1.83;1.30;;;36.70;28.60;;;;;;6254365;28;20431;-72
2022/06/06 11:31:29;;;;;;;1.38;1.10;;;37.20;28.30;;;;;;6239372;28;20041;-71
2022/06/06 11:35:05;;;;;;;2.58;1.65;;;37.60;27.80;;;;;;6243149;28;20124;-72
2022/06/06 11:38:41;;;;;;;3.35;1.60;;;38.10;27.30;;;;;;6215724;28;20375;-71
2022/06/06 11:42:23;;;;;;;1.63;1.23;;;38.60;26.70;;;;;;6166631;28;20065;-72
2022/06/06 11:45:42;;;;;;;1.65;1.27;;;39.00;26.10;;;;;;6163808;28;20126;-72
2022/06/06 11:48:51;;;;;;;1.30;1.20;;;39.20;25.90;;;;;;6165209;28;20045;-72
2022/06/06 11:52:16;;;;;;;2.92;1.50;;;39.40;25.60;;;;;;6167233;28;20043;-73
2022/06/06 11:55:58;;;;;;;2.28;1.40;;;39.40;25.30;;;;;;6149852;28;20039;-72
2022/06/06 11:59:21;;;;;;;1.38;1.20;;;38.90;25.50;;;;;;6100448;29;20036;-72
2022/06/06 12:03:07;;;;;;;8.57;1.38;;;39.00;25.50;;;;;;6103371;29;20122;-72
2022/06/06 12:06:35;;;;;;;1.90;1.30;;;39.00;25.20;;;;;;6080922;29;20158;-72
2022/06/06 12:09:46;;;;;;;2.77;1.50;;;38.90;24.80;;;;;;6103129;29;20436;-73
2022/06/06 12:13:05;;;;;;;1.58;1.08;;;38.80;24.80;;;;;;6103144;29;20570;-73
2022/06/06 12:16:29;;;;;;;1.42;0.95;;;38.90;24.70;;;;;;6103658;29;20042;-72
2022/06/06 12:19:32;;;;;;;4.25;1.50;;;39.00;24.40;;;;;;6160720;28;20109;-72
2022/06/06 12:22:57;;;;;;;6.97;1.35;;;39.10;24.10;;;;;;6151168;28;20028;-72
2022/06/06 12:26:25;;;;;;;1.40;1.20;;;39.00;23.80;;;;;;6151590;28;20182;-73
2022/06/06 12:30:08;;;;;;;2.50;1.25;;;39.10;24.00;;;;;;6151752;29;20035;-72
2022/06/06 12:33:37;;;;;;;1.80;1.00;;;39.40;23.60;;;;;;6220563;28;20070;-72
2022/06/06 12:36:50;;;;;;;1.10;0.80;;;39.60;23.10;;;;;;6221832;28;20037;-72
2022/06/06 12:40:12;;;;;;;1.85;1.30;;;39.60;23.10;;;;;;6220335;28;20030;-71
2022/06/06 12:43:21;;;;;;;2.80;1.20;;;39.60;22.90;;;;;;6204988;28;20021;-73
2022/06/06 12:46:58;;;;;;;1.60;1.45;;;39.50;22.70;;;;;;6219995;28;20573;-73
2022/06/06 12:50:38;;;;;;;7.57;1.30;;;39.40;22.60;;;;;;6206943;28;20030;-73
2022/06/06 12:53:57;;;;;;;2.08;1.05;;;39.50;22.30;;;;;;6151150;29;20481;-72
2022/06/06 12:57:01;;;;;;;3.22;0.90;;;39.50;21.90;;;;;;6150091;29;20075;-73
2022/06/06 13:00:08;;;;;;;2.15;0.98;;;39.50;21.50;;;;;;6150974;29;20039;-73
2022/06/06 13:03:24;;;;;;;4.40;1.00;;;39.60;21.50;;;;;;6129574;28;20040;-73
2022/06/06 13:06:52;;;;;;;3.38;0.90;;;40.00;20.70;;;;;;6145669;29;20380;-72
2022/06/06 13:10:11;;;;;;;1.10;0.90;;;40.50;20.20;;;;;;6147448;29;20366;-72
2022/06/06 13:13:37;;;;;;;4.85;1.15;;;40.90;20.10;;;;;;6150292;28;20456;-72
2022/06/06 13:16:49;;;;;;;1.35;1.05;;;41.40;20.20;;;;;;6204959;28;20411;-72
2022/06/06 13:20:14;;;;;;;3.50;1.20;;;41.90;19.90;;;;;;6199528;28;20045;-72
2022/06/06 13:23:15;;;;;;;0.80;0.80;;;42.40;19.50;;;;;;6162431;28;20042;-72
2022/06/06 13:26:40;;;;;;;3.25;1.00;;;42.80;19.00;;;;;;6198278;28;20041;-71
2022/06/06 13:29:41;;;;;;;2.55;1.00;;;43.20;18.70;;;;;;6217291;28;20433;-71
2022/06/06 13:33:12;;;;;;;3.63;0.95;;;43.20;18.50;;;;;;6232225;28;20037;-71
2022/06/06 13:36:40;;;;;;;1.25;1.00;;;42.90;18.30;;;;;;6271845;28;20112;-72
2022/06/06 13:39:56;;;;;;;1.08;0.93;;;42.90;18.30;;;;;;6241667;28;20029;-71
2022/06/06 13:43:35;;;;;;;1.65;1.00;;;43.10;18.20;;;;;;6270743;28;20096;-72
2022/06/06 13:47:04;;;;;;;1.90;1.00;;;43.40;18.00;;;;;;6260666;28;20021;-72
2022/06/06 13:50:14;;;;;;;0.77;0.77;;;43.80;17.60;;;;;;6241193;28;20041;-73
2022/06/06 13:53:36;;;;;;;2.30;0.85;;;43.80;17.10;;;;;;6242153;28;20098;-72
2022/06/06 13:57:15;;;;;;;2.05;1.00;;;43.60;16.70;;;;;;6267310;28;20057;-73
2022/06/06 14:00:22;;;;;;;0.90;0.80;;;43.40;16.60;;;;;;6246290;28;20414;-71
2022/06/06 14:03:57;;;;;;;1.70;0.80;;;43.50;16.20;;;;;;6245082;28;20041;-72
2022/06/06 14:07:25;;;;;;;2.35;0.90;;;43.40;16.20;;;;;;6244117;28;20029;-72
2022/06/06 14:10:36;;;;;;;;;;;43.00;16.40;;;;;;6244920;28;20084;-72
2022/06/06 14:13:58;;;;;;;5.63;1.02;;;42.30;16.70;;;;;;6243101;28;19921;-73
2022/06/06 14:17:04;;;;;;;1.90;0.75;;;41.70;16.80;;;;;;6260243;28;20486;-72
2022/06/06 14:20:17;;;;;;;0.60;0.60;;;41.70;16.80;;;;;;6243551;28;20096;-74
2022/06/06 14:23:32;;;;;;;0.45;0.45;;;42.30;16.40;;;;;;6266101;28;20370;-73
2022/06/06 14:26:33;;;;;;;1.67;0.70;;;42.90;15.80;;;;;;6269706;28;20357;-73
2022/06/06 14:29:38;;;;;;;0.65;0.65;;;43.70;15.00;;;;;;6245490;28;20017;-72
2022/06/06 14:32:48;;;;;;;0.80;0.65;;;44.60;14.70;;;;;;6245664;28;20041;-72
2022/06/06 14:35:51;;;;;;;3.20;0.73;;;45.50;14.30;;;;;;6269672;28;20542;-72
2022/06/06 14:38:57;;;;;;;3.20;0.75;;;46.40;13.80;;;;;;6242005;28;20060;-72
2022/06/06 14:42:01;;;;;;;1.07;0.60;;;46.80;13.50;;;;;;6245572;28;20124;-72
2022/06/06 14:45:13;;;;;;;1.95;0.60;;;47.30;13.60;;;;;;6245613;28;20024;-72
2022/06/06 14:48:18;;;;;;;1.38;0.40;;;47.60;12.80;;;;;;6236980;28;20021;-72
2022/06/06 14:51:19;;;;;;;1.33;0.55;;;47.60;12.60;;;;;;6245706;28;20025;-71
2022/06/06 14:54:21;;;;;;;0.60;0.60;;;47.20;12.80;;;;;;6273858;28;20022;-72
2022/06/06 14:57:27;;;;;;;0.60;0.60;;;47.00;13.00;;;;;;6261461;28;20036;-71
2022/06/06 15:00:35;;;;;;;0.90;0.60;;;47.00;13.20;;;;;;6243083;28;20018;-71
2022/06/06 15:03:41;;;;;;;0.93;0.63;;;46.30;13.50;;;;;;6272676;28;20026;-71
2022/06/06 15:06:49;;;;;;;1.40;0.70;;;44.90;14.30;;;;;;6242433;28;20029;-71
2022/06/06 15:10:01;;;;;;;1.77;0.82;;;43.60;14.80;;;;;;6245396;28;20034;-71
2022/06/06 15:13:02;;;;;;;1.42;0.90;;;42.60;14.90;;;;;;6238912;28;20067;-72
2022/06/06 15:16:06;;;;;;;4.00;1.02;;;41.80;15.20;;;;;;6240950;28;20027;-74
2022/06/06 15:19:17;;;;;;;0.57;0.57;;;41.00;15.80;;;;;;6268889;28;20123;-73
2022/06/06 15:22:32;;;;;;;1.38;0.63;;;40.20;16.10;;;;;;6242369;28;20046;-73
2022/06/06 15:25:42;;;;;;;0.85;0.60;;;40.10;16.20;;;;;;6242119;28;20036;-72
2022/06/06 15:28:55;;;;;;;1.48;0.70;;;40.90;15.80;;;;;;6246185;28;20082;-72
2022/06/06 15:32:45;;;;;;;0.52;0.52;;;42.20;15.20;;;;;;6246728;28;20041;-73
2022/06/06 15:35:56;;;;;;;1.02;0.50;;;43.20;14.50;;;;;;6211127;28;20459;-73
2022/06/06 15:39:24;;;;;;;1.92;0.80;;;43.80;14.20;;;;;;6193609;28;20033;-73
2022/06/06 15:42:53;;;;;;;1.85;0.55;;;43.90;14.20;;;;;;6201417;28;20058;-74
2022/06/06 15:45:57;;;;;;;1.77;0.80;;;43.50;14.30;;;;;;6208690;28;20125;-72
2022/06/06 15:49:22;;;;;;;1.65;0.95;;;42.80;14.40;;;;;;6207911;28;20608;-72
2022/06/06 15:52:53;;;;;;;2.72;0.90;;;42.30;14.70;;;;;;6208360;28;20038;-72
2022/06/06 15:56:35;;;;;;;0.68;0.50;;;41.80;15.00;;;;;;6194642;28;20030;-72
2022/06/06 16:00:02;;;;;;;0.65;0.50;;;41.10;15.30;;;;;;6209577;28;20121;-73
2022/06/06 16:03:09;;;;;;;1.52;0.60;;;40.30;15.90;;;;;;6205869;28;20467;-72
2022/06/06 16:06:13;;;;;;;1.20;0.68;;;39.50;16.40;;;;;;6228313;28;20037;-74
2022/06/06 16:09:21;;;;;;;1.48;0.80;;;38.80;16.80;;;;;;6276182;28;20053;-73
2022/06/06 16:12:58;;;;;;;2.97;0.82;;;38.10;17.80;;;;;;6268510;28;20083;-74
2022/06/06 16:16:36;;;;;;;1.98;0.63;;;37.30;18.90;;;;;;6245814;28;20029;-73
2022/06/06 16:19:50;;;;;;;;;;;36.60;19.30;;;;;;6272566;28;20151;-72
2022/06/06 16:22:57;;;;;;;1.15;0.80;;;36.20;19.40;;;;;;6273579;28;20411;-73
2022/06/06 16:26:04;;;;;;;4.00;0.70;;;35.70;19.60;;;;;;6272559;28;20037;-72
2022/06/06 16:29:10;;;;;;;;;;;35.40;20.00;;;;;;6243253;28;20033;-72
2022/06/06 16:32:17;;;;;;;8.45;0.80;;;35.20;20.30;;;;;;6243704;28;20339;-72
2022/06/06 16:35:27;;;;;;;0.95;0.77;;;34.90;20.70;;;;;;6273076;28;20422;-73
2022/06/06 16:38:46;;;;;;;1.13;0.73;;;34.60;21.10;;;;;;6243473;28;20048;-72
2022/06/06 16:49:13;;;;;;;1.90;1.05;;;33.90;22.20;;;;;;6246495;28;20108;-71
2022/06/06 16:52:32;;;;;;;14.43;3.80;;;33.50;22.60;;;;;;6243629;28;20036;-74
2022/06/06 16:55:57;;;;;;;13.45;1.23;;;33.20;23.10;;;;;;6262841;28;20117;-72
2022/06/06 16:59:12;;;;;;;6.97;1.17;;;32.90;23.70;;;;;;6217780;28;20045;-72
2022/06/06 17:02:34;;;;;;;1.92;1.00;;;32.70;24.10;;;;;;6270286;28;20775;-72
2022/06/06 17:09:17;;;;;;;0.98;0.88;;;32.50;24.60;;;;;;6247827;28;20471;-71
2022/06/06 17:12:36;;;;;;;3.17;1.50;;;32.40;24.90;;;;;;6272510;28;20025;-72
2022/06/06 17:15:44;;;;;;;2.33;1.10;;;32.40;25.20;;;;;;6243050;28;20331;-72
2022/06/06 17:19:18;;;;;;;4.18;1.00;;;32.30;25.30;;;;;;6273692;28;20480;-72
2022/06/06 17:22:30;;;;;;;3.80;1.02;;;32.40;25.60;;;;;;6218067;28;20473;-71
2022/06/06 17:25:47;;;;;;;1.30;0.95;;;32.40;25.80;;;;;;6215409;28;20494;-72
2022/06/06 17:29:12;;;;;;;2.17;0.90;;;32.30;26.10;;;;;;6218859;28;20030;-73
2022/06/06 17:32:16;;;;;;;4.85;1.35;;;32.30;26.50;;;;;;6202690;28;20391;-72